Time;durP1;ratioP1;P1;durP2;ratioP2;P2;SDS_P1;SDS_P2;PMS_P1;PMS_P2;Temp;Humidity;BMP_temperature;BMP_pressure;BME280_temperature;BME280_humidity;BME280_pressure;Samples;Min_cycle;Max_cycle;Signal;HPM_P1;HPM_P2
2022/06/30 00:02:24;;;;;;;12.68;8.80;;;;;;;29.29;54.89;100719.23;1748085;81;21059;-75
2022/06/30 00:04:51;;;;;;;12.15;8.48;;;;;;;29.16;54.99;100723.88;1749689;82;21557;-75
2022/06/30 00:07:18;;;;;;;11.35;8.15;;;;;;;29.05;55.79;100723.48;1752309;81;21502;-75
2022/06/30 00:09:45;;;;;;;16.87;8.33;;;;;;;28.85;56.66;100730.65;1750903;81;21037;-75
2022/06/30 00:12:12;;;;;;;11.78;8.20;;;;;;;28.58;57.72;100720.69;1751367;81;21049;-74
2022/06/30 00:14:39;;;;;;;14.83;8.93;;;;;;;28.42;58.33;100726.92;1747264;82;21537;-75
2022/06/30 00:17:07;;;;;;;13.20;8.73;;;;;;;28.22;59.36;100722.63;1749728;81;21023;-76
2022/06/30 00:19:35;;;;;;;14.40;8.95;;;;;;;27.95;60.24;100720.34;1749399;81;21022;-75
2022/06/30 00:22:05;;;;;;;13.50;8.58;;;;;;;27.57;60.96;100724.20;1749127;81;21073;-75
2022/06/30 00:24:31;;;;;;;14.78;9.05;;;;;;;27.61;61.34;100722.52;1749363;81;20980;-76
2022/06/30 00:26:58;;;;;;;14.18;9.55;;;;;;;27.48;61.74;100715.97;1746952;81;21039;-74
2022/06/30 00:29:25;;;;;;;13.93;9.48;;;;;;;27.58;61.25;100707.32;1749442;81;21094;-75
2022/06/30 00:31:53;;;;;;;15.10;10.20;;;;;;;27.59;61.46;100696.23;1752563;82;21105;-75
2022/06/30 00:34:20;;;;;;;15.40;9.60;;;;;;;27.46;61.79;100691.53;1750982;82;21444;-74
2022/06/30 00:36:47;;;;;;;17.32;10.30;;;;;;;27.32;62.34;100685.16;1747810;82;20995;-75
2022/06/30 00:39:14;;;;;;;14.20;10.38;;;;;;;27.42;62.30;100686.27;1749628;82;21007;-75
2022/06/30 00:41:42;;;;;;;15.10;10.08;;;;;;;27.59;61.81;100689.62;1749184;82;21007;-75
2022/06/30 00:44:13;;;;;;;19.60;10.10;;;;;;;27.81;61.53;100684.54;1748660;80;21027;-74
2022/06/30 00:46:40;;;;;;;14.50;9.30;;;;;;;27.76;62.03;100689.05;1747321;82;21019;-75
2022/06/30 00:49:08;;;;;;;13.78;9.90;;;;;;;27.84;61.83;100683.69;1748691;82;21027;-75
2022/06/30 00:51:35;;;;;;;17.87;10.10;;;;;;;27.52;62.57;100682.90;1746065;82;21551;-74
2022/06/30 00:54:05;;;;;;;14.95;9.83;;;;;;;27.67;62.86;100677.67;1750902;81;22155;-74
2022/06/30 00:56:34;;;;;;;14.00;9.33;;;;;;;27.62;63.34;100669.45;1746378;82;21102;-75
2022/06/30 00:59:05;;;;;;;13.10;9.13;;;;;;;27.60;63.77;100670.64;1751270;81;21523;-74
2022/06/30 01:01:33;;;;;;;13.80;9.43;;;;;;;27.81;63.52;100668.16;1746077;82;21034;-74
2022/06/30 01:04:01;;;;;;;15.35;9.93;;;;;;;27.75;63.56;100671.00;1747960;81;21062;-74
2022/06/30 01:06:29;;;;;;;18.85;9.95;;;;;;;27.72;63.89;100662.12;1754579;82;21019;-74
2022/06/30 01:08:57;;;;;;;13.03;9.30;;;;;;;27.52;64.33;100672.83;1748720;81;21078;-74
2022/06/30 01:14:11;;;;;;;13.48;10.00;;;;;;;27.35;65.66;100666.31;1744965;82;21031;-74
2022/06/30 01:16:44;;;;;;;16.48;10.00;;;;;;;27.27;65.77;100666.36;1749337;82;21046;-74
2022/06/30 01:19:08;;;;;;;15.98;9.83;;;;;;;27.30;66.02;100671.80;1750076;82;21475;-74
2022/06/30 01:21:35;;;;;;;16.02;9.93;;;;;;;27.31;64.21;100665.02;1747883;82;21035;-74
2022/06/30 01:24:03;;;;;;;15.53;10.38;;;;;;;27.50;63.43;100660.28;1749508;81;21082;-74
2022/06/30 01:26:30;;;;;;;17.35;10.50;;;;;;;27.62;62.70;100665.49;1750914;82;21063;-75
2022/06/30 01:28:57;;;;;;;16.70;10.15;;;;;;;27.84;61.86;100663.01;1748927;82;21018;-75
2022/06/30 01:31:24;;;;;;;13.75;10.08;;;;;;;27.94;60.29;100666.27;1749615;82;21103;-75
2022/06/30 01:33:51;;;;;;;21.05;10.38;;;;;;;28.26;58.92;100666.48;1749516;81;21010;-74
2022/06/30 01:36:18;;;;;;;15.72;10.30;;;;;;;28.31;58.44;100655.38;1748959;81;21034;-74
2022/06/30 01:38:46;;;;;;;14.65;8.78;;;;;;;28.34;58.50;100656.33;1748642;82;21035;-74
2022/06/30 01:41:15;;;;;;;14.63;9.35;;;;;;;28.54;59.42;100654.83;1745897;82;21602;-75
2022/06/30 01:43:42;;;;;;;13.32;9.40;;;;;;;28.44;61.08;100652.09;1745861;82;21122;-76
2022/06/30 01:46:09;;;;;;;11.05;9.00;;;;;;;28.42;61.80;100652.27;1747844;82;21002;-75
2022/06/30 01:48:37;;;;;;;18.50;9.48;;;;;;;28.37;62.24;100662.09;1749874;81;21047;-75
2022/06/30 01:51:04;;;;;;;16.67;9.35;;;;;;;28.35;62.42;100668.06;1748715;82;21066;-75
2022/06/30 01:53:31;;;;;;;12.30;9.30;;;;;;;28.37;62.48;100671.36;1751335;82;21542;-76
2022/06/30 01:55:58;;;;;;;17.92;9.50;;;;;;;27.85;63.80;100676.06;1750202;81;21018;-76
2022/06/30 01:58:26;;;;;;;14.03;10.25;;;;;;;27.92;64.03;100684.98;1745547;82;21011;-76
2022/06/30 02:00:53;;;;;;;13.20;9.90;;;;;;;28.03;64.02;100693.00;1750445;81;21082;-76
2022/06/30 02:03:20;;;;;;;18.05;10.00;;;;;;;27.89;64.45;100691.94;1750950;81;21055;-76
2022/06/30 02:05:47;;;;;;;17.07;9.93;;;;;;;27.95;64.20;100692.55;1750074;82;21098;-75
2022/06/30 02:08:15;;;;;;;14.63;10.23;;;;;;;28.03;63.64;100681.59;1747664;82;21039;-76
2022/06/30 02:10:42;;;;;;;15.13;10.55;;;;;;;28.11;64.28;100684.17;1747143;82;21011;-76
2022/06/30 02:13:10;;;;;;;15.25;10.55;;;;;;;28.12;63.77;100683.16;1747905;82;21122;-76
2022/06/30 02:15:38;;;;;;;21.80;10.35;;;;;;;28.02;63.85;100686.08;1751509;82;21081;-76
2022/06/30 02:18:08;;;;;;;16.87;11.08;;;;;;;28.26;62.84;100694.79;1754312;81;21476;-76
2022/06/30 02:20:37;;;;;;;16.75;11.33;;;;;;;28.36;62.44;100692.20;1748578;81;21066;-76
2022/06/30 02:23:05;;;;;;;16.25;10.45;;;;;;;28.46;61.99;100694.59;1748527;81;21027;-76
2022/06/30 02:25:33;;;;;;;17.42;10.48;;;;;;;28.64;61.88;100705.39;1749392;81;21496;-76
2022/06/30 02:28:02;;;;;;;16.80;10.45;;;;;;;28.69;62.21;100714.92;1749202;82;21023;-76
2022/06/30 02:30:29;;;;;;;16.20;10.85;;;;;;;28.40;63.29;100719.66;1749025;82;21019;-75
2022/06/30 02:32:56;;;;;;;21.65;10.98;;;;;;;28.35;63.60;100718.87;1747927;82;21102;-75
2022/06/30 02:35:24;;;;;;;16.00;10.65;;;;;;;28.31;63.54;100715.77;1755157;81;20984;-77
2022/06/30 02:37:51;;;;;;;15.30;10.90;;;;;;;28.33;63.29;100715.08;1752169;81;21502;-76
2022/06/30 02:40:19;;;;;;;14.78;10.58;;;;;;;28.43;63.18;100721.93;1748439;82;21538;-76
2022/06/30 02:42:48;;;;;;;16.55;11.03;;;;;;;28.24;63.59;100725.41;1747982;82;21027;-76
2022/06/30 02:45:15;;;;;;;15.93;11.03;;;;;;;28.03;64.35;100732.69;1750897;82;21027;-77
2022/06/30 02:47:45;;;;;;;19.25;11.53;;;;;;;28.07;64.95;100744.56;1751511;81;21003;-76
2022/06/30 02:50:13;;;;;;;19.82;11.25;;;;;;;28.11;65.59;100753.80;1747473;82;21042;-77
2022/06/30 02:52:42;;;;;;;20.92;12.53;;;;;;;28.32;65.23;100758.94;1752624;81;21054;-76
2022/06/30 02:55:09;;;;;;;17.37;11.90;;;;;;;28.40;65.38;100758.05;1750746;82;21523;-77
2022/06/30 02:57:38;;;;;;;19.67;12.30;;;;;;;28.30;65.12;100760.94;1752644;81;21003;-76
2022/06/30 03:00:09;;;;;;;23.10;13.72;;;;;;;28.51;64.82;100769.59;1750575;81;22038;-76
2022/06/30 03:02:36;;;;;;;22.48;12.85;;;;;;;28.56;64.55;100772.00;1750809;82;21031;-75
2022/06/30 03:05:04;;;;;;;22.70;13.03;;;;;;;28.72;63.97;100771.53;1746120;82;21031;-76
2022/06/30 03:07:31;;;;;;;20.50;12.50;;;;;;;28.56;63.24;100768.53;1747545;82;21491;-76
2022/06/30 03:09:59;;;;;;;18.50;12.93;;;;;;;28.79;62.88;100763.68;1750683;82;21030;-76
2022/06/30 03:12:26;;;;;;;21.65;12.10;;;;;;;29.07;62.23;100767.86;1746818;82;21071;-75
2022/06/30 03:14:54;;;;;;;22.05;12.33;;;;;;;29.09;61.63;100771.96;1745074;82;21019;-75
2022/06/30 03:17:21;;;;;;;15.48;11.43;;;;;;;29.16;61.56;100766.30;1746719;81;21019;-76
2022/06/30 03:19:48;;;;;;;19.87;11.80;;;;;;;29.31;60.92;100772.91;1751557;82;21090;-76
2022/06/30 03:22:15;;;;;;;15.85;11.25;;;;;;;29.46;60.55;100770.73;1744577;81;21114;-76
2022/06/30 03:24:42;;;;;;;18.50;11.68;;;;;;;29.55;59.95;100767.80;1743698;82;20991;-76
2022/06/30 03:27:10;;;;;;;21.17;11.53;;;;;;;29.49;59.17;100759.77;1750578;82;21066;-75
2022/06/30 03:29:37;;;;;;;18.10;12.55;;;;;;;29.59;59.43;100756.31;1753036;82;21012;-75
2022/06/30 03:32:05;;;;;;;20.95;12.47;;;;;;;29.62;58.89;100751.14;1753302;82;21019;-76
2022/06/30 03:34:32;;;;;;;19.60;12.53;;;;;;;29.61;59.04;100756.14;1748834;82;21058;-74
2022/06/30 03:37:00;;;;;;;20.17;11.93;;;;;;;29.59;58.88;100751.52;1746399;81;21019;-75
2022/06/30 03:39:27;;;;;;;29.67;14.98;;;;;;;29.69;58.38;100752.05;1745100;82;21015;-75
2022/06/30 03:41:54;;;;;;;48.55;24.47;;;;;;;29.49;58.45;100759.77;1747803;82;21515;-74
2022/06/30 03:44:21;;;;;;;40.52;22.07;;;;;;;29.34;58.73;100751.34;1750465;81;21015;-75
2022/06/30 03:46:48;;;;;;;30.25;16.07;;;;;;;29.25;59.23;100760.89;1751443;81;21038;-76
2022/06/30 03:49:16;;;;;;;22.45;14.35;;;;;;;29.45;58.62;100761.15;1747115;82;21047;-75
2022/06/30 03:51:43;;;;;;;24.57;13.98;;;;;;;29.52;59.11;100756.25;1746901;81;20983;-75
2022/06/30 03:54:11;;;;;;;23.67;14.20;;;;;;;29.62;58.83;100758.58;1752294;81;21071;-75
2022/06/30 03:56:38;;;;;;;21.77;13.93;;;;;;;29.78;58.99;100760.22;1750069;82;21034;-74
2022/06/30 03:59:05;;;;;;;23.42;14.00;;;;;;;30.03;59.23;100759.37;1748701;82;21059;-75
2022/06/30 04:01:32;;;;;;;26.33;14.90;;;;;;;30.23;60.20;100748.94;1747578;82;21067;-74
2022/06/30 04:03:59;;;;;;;24.82;14.60;;;;;;;30.66;60.81;100749.41;1746729;82;21016;-75
2022/06/30 04:06:26;;;;;;;24.45;14.45;;;;;;;30.82;59.90;100754.90;1748319;81;21035;-75
2022/06/30 04:08:53;;;;;;;20.10;14.75;;;;;;;31.07;58.81;100756.11;1749689;80;21050;-75
2022/06/30 04:11:21;;;;;;;23.22;13.83;;;;;;;31.25;58.67;100756.92;1748988;80;21063;-75
2022/06/30 04:13:49;;;;;;;20.97;12.53;;;;;;;31.16;57.98;100754.09;1749907;81;21078;-76
2022/06/30 04:16:16;;;;;;;23.30;13.15;;;;;;;31.01;58.42;100754.75;1748389;81;21003;-75
2022/06/30 04:18:43;;;;;;;25.70;13.20;;;;;;;30.87;58.88;100753.30;1750109;82;21018;-76
2022/06/30 04:21:11;;;;;;;19.05;13.22;;;;;;;30.77;58.51;100751.50;1749747;81;20975;-76
2022/06/30 04:23:39;;;;;;;23.85;13.43;;;;;;;30.04;60.92;100751.70;1749067;81;21070;-75
2022/06/30 04:26:06;;;;;;;22.90;13.15;;;;;;;30.47;61.12;100754.34;1749289;82;21026;-76
2022/06/30 04:28:34;;;;;;;22.27;12.30;;;;;;;30.74;59.17;100762.54;1747435;81;21075;-76
2022/06/30 04:33:46;;;;;;;22.48;11.78;;;;;;;30.73;58.32;100764.87;1750306;82;21574;-75
2022/06/30 04:36:13;;;;;;;23.05;12.45;;;;;;;30.46;58.44;100765.19;1746544;82;21059;-75
2022/06/30 04:38:41;;;;;;;18.40;11.88;;;;;;;30.32;59.02;100765.07;1750665;82;21573;-75
2022/06/30 04:41:26;;;;;;;19.90;11.83;;;;;;;30.34;59.35;100767.54;1751281;81;21475;-75
2022/06/30 04:43:56;;;;;;;20.32;12.85;;;;;;;30.78;58.61;100767.78;1747890;82;21020;-75
2022/06/30 04:46:25;;;;;;;20.45;13.40;;;;;;;30.99;58.13;100766.91;1747225;81;21007;-75
2022/06/30 04:48:53;;;;;;;21.60;13.25;;;;;;;30.83;58.28;100766.67;1749694;81;21559;-75
2022/06/30 04:51:21;;;;;;;25.92;14.65;;;;;;;31.05;57.91;100759.98;1749735;82;21070;-75
2022/06/30 04:53:48;;;;;;;25.88;15.80;;;;;;;31.18;56.68;100762.70;1746725;82;21014;-75
2022/06/30 04:56:15;;;;;;;25.25;15.08;;;;;;;31.18;55.98;100765.87;1743362;82;21055;-75
2022/06/30 04:58:42;;;;;;;22.32;15.32;;;;;;;31.20;56.09;100767.83;1746910;82;21475;-75
2022/06/30 05:01:10;;;;;;;24.15;13.75;;;;;;;31.18;56.17;100765.36;1750519;82;21546;-74
2022/06/30 05:03:39;;;;;;;23.73;13.18;;;;;;;31.04;55.66;100759.66;1749090;82;21023;-74
2022/06/30 05:06:07;;;;;;;23.12;12.90;;;;;;;30.09;57.72;100758.61;1751209;81;21059;-74
2022/06/30 05:08:34;;;;;;;26.00;15.88;;;;;;;29.43;59.44;100753.38;1747950;82;21010;-74
2022/06/30 05:11:02;;;;;;;38.73;20.80;;;;;;;29.82;57.69;100752.71;1747806;80;21467;-73
2022/06/30 05:13:29;;;;;;;29.20;16.77;;;;;;;29.88;55.15;100754.09;1747053;81;20999;-75
2022/06/30 05:15:56;;;;;;;23.22;12.30;;;;;;;30.37;53.59;100748.55;1750896;81;21606;-75
2022/06/30 05:18:26;;;;;;;23.73;12.58;;;;;;;30.25;53.02;100753.55;1747366;82;21079;-74
2022/06/30 05:20:53;;;;;;;21.10;11.88;;;;;;;30.81;52.44;100759.92;1749413;81;21071;-74
2022/06/30 05:23:20;;;;;;;19.90;12.30;;;;;;;30.23;53.09;100762.22;1754292;81;21554;-75
2022/06/30 05:28:33;;;;;;;18.20;10.95;;;;;;;29.85;54.87;100753.17;1752664;81;21003;-75
2022/06/30 05:31:00;;;;;;;15.72;10.40;;;;;;;29.86;55.42;100760.61;1748573;82;21050;-75
2022/06/30 05:33:27;;;;;;;20.88;9.83;;;;;;;29.73;55.76;100761.30;1749660;81;21034;-74
2022/06/30 05:35:55;;;;;;;15.18;9.20;;;;;;;29.82;55.96;100760.16;1748761;82;21047;-75
2022/06/30 05:38:22;;;;;;;20.08;9.80;;;;;;;30.10;54.74;100756.26;1748019;82;21022;-74
2022/06/30 05:40:49;;;;;;;17.10;9.08;;;;;;;31.14;53.06;100757.47;1753230;81;21526;-74
2022/06/30 05:43:17;;;;;;;15.83;8.83;;;;;;;31.62;51.33;100762.81;1752647;82;21524;-74
2022/06/30 05:45:46;;;;;;;16.80;9.68;;;;;;;31.31;50.72;100769.42;1748570;82;20987;-74
2022/06/30 05:48:13;;;;;;;15.32;8.90;;;;;;;31.35;50.39;100769.86;1743555;82;21019;-73
2022/06/30 05:50:40;;;;;;;12.85;9.00;;;;;;;31.35;50.25;100768.01;1746202;82;21074;-75
2022/06/30 05:53:07;;;;;;;18.45;9.75;;;;;;;31.20;50.29;100764.66;1752024;81;21014;-74
2022/06/30 05:55:35;;;;;;;19.15;10.48;;;;;;;31.40;50.47;100763.41;1749697;81;20996;-75
2022/06/30 05:58:04;;;;;;;18.82;10.53;;;;;;;31.21;49.73;100769.48;1750882;82;21007;-74
2022/06/30 06:00:32;;;;;;;18.20;10.03;;;;;;;30.57;49.72;100767.81;1752945;82;21015;-76
2022/06/30 06:02:59;;;;;;;16.15;10.25;;;;;;;30.39;49.85;100763.78;1742969;80;21067;-73
2022/06/30 06:05:27;;;;;;;23.25;10.78;;;;;;;30.15;51.35;100769.80;1721293;82;21055;-74
2022/06/30 06:07:54;;;;;;;21.48;10.20;;;;;;;30.01;51.66;100768.52;1719767;82;21078;-73
2022/06/30 06:10:22;;;;;;;14.90;9.33;;;;;;;30.46;51.07;100767.84;1719261;82;21039;-73
2022/06/30 06:12:50;;;;;;;18.30;9.50;;;;;;;30.71;50.02;100769.55;1718022;82;21106;-74
2022/06/30 06:15:17;;;;;;;15.50;9.13;;;;;;;30.43;49.12;100774.86;1723755;82;21175;-74
2022/06/30 06:17:47;;;;;;;18.70;9.83;;;;;;;30.34;48.98;100770.20;1725286;82;21016;-74
2022/06/30 06:20:18;;;;;;;17.23;9.50;;;;;;;30.32;48.94;100773.03;1724756;82;21054;-73
2022/06/30 06:22:45;;;;;;;15.83;9.28;;;;;;;30.51;49.17;100770.22;1719592;82;21068;-73
2022/06/30 06:25:14;;;;;;;15.80;9.73;;;;;;;30.51;49.03;100764.91;1721625;82;21496;-73
2022/06/30 06:27:42;;;;;;;16.77;9.63;;;;;;;30.44;48.65;100762.72;1720881;82;21085;-74
2022/06/30 06:30:11;;;;;;;13.62;8.98;;;;;;;30.64;48.71;100768.70;1723777;83;21067;-74
2022/06/30 06:32:38;;;;;;;13.38;8.75;;;;;;;30.64;48.71;100768.70;1723939;82;21074;-75
2022/06/30 06:35:07;;;;;;;14.93;8.85;;;;;;;30.76;48.31;100772.47;1718415;82;21051;-73
2022/06/30 06:37:34;;;;;;;18.42;9.58;;;;;;;30.64;48.89;100764.72;1718954;83;21078;-74
2022/06/30 06:40:01;;;;;;;12.98;8.78;;;;;;;30.64;48.89;100764.72;1718857;82;21020;-74
2022/06/30 06:42:29;;;;;;;22.35;8.83;;;;;;;30.93;48.46;100773.00;1721302;82;21117;-75
2022/06/30 06:44:56;;;;;;;19.67;9.08;;;;;;;31.16;47.48;100764.73;1719175;82;21058;-74
2022/06/30 06:47:24;;;;;;;15.70;8.48;;;;;;;30.93;46.63;100759.72;1721160;82;21090;-74
2022/06/30 06:49:51;;;;;;;19.20;8.50;;;;;;;30.02;48.84;100767.00;1720650;82;21501;-75
2022/06/30 06:52:18;;;;;;;19.05;8.88;;;;;;;30.02;48.84;100767.00;1722054;82;21066;-75
2022/06/30 06:54:44;;;;;;;17.98;8.80;;;;;;;30.20;48.15;100769.73;1720651;82;21015;-75
2022/06/30 06:57:11;;;;;;;14.60;8.35;;;;;;;30.20;48.93;100763.91;1718907;82;21067;-74
2022/06/30 06:59:39;;;;;;;16.02;8.50;;;;;;;30.80;48.48;100755.11;1722553;82;21020;-74
2022/06/30 07:02:06;;;;;;;21.42;8.23;;;;;;;30.80;46.75;100751.12;1718689;82;20988;-74
2022/06/30 07:04:35;;;;;;;18.32;8.78;;;;;;;30.80;46.75;100751.12;1721368;82;21067;-73
2022/06/30 07:07:03;;;;;;;19.15;9.05;;;;;;;30.86;47.29;100758.81;1719666;82;21468;-73
2022/06/30 07:09:31;;;;;;;17.70;9.53;;;;;;;31.55;46.95;100759.33;1723107;82;21148;-73
2022/06/30 07:11:58;;;;;;;28.92;11.85;;;;;;;30.94;46.89;100764.84;1724787;82;21047;-73
2022/06/30 07:14:25;;;;;;;22.13;10.13;;;;;;;30.84;46.80;100765.67;1723083;82;21015;-73
2022/06/30 07:16:52;;;;;;;17.70;9.70;;;;;;;30.62;46.79;100762.25;1721267;82;21020;-73
2022/06/30 07:19:19;;;;;;;16.70;9.50;;;;;;;31.38;47.36;100757.47;1724273;82;21476;-75
2022/06/30 07:21:47;;;;;;;17.67;9.48;;;;;;;31.11;46.29;100759.20;1724882;83;21039;-73
2022/06/30 07:24:14;;;;;;;16.05;9.30;;;;;;;31.15;47.23;100758.60;1718407;82;21083;-73
2022/06/30 07:26:41;;;;;;;16.60;9.30;;;;;;;31.88;46.22;100758.58;1722208;82;21113;-74
2022/06/30 07:29:08;;;;;;;21.25;9.18;;;;;;;31.96;45.09;100762.38;1740066;82;21008;-73
2022/06/30 07:31:36;;;;;;;16.27;8.80;;;;;;;31.42;46.46;100766.70;1749820;82;21218;-74
2022/06/30 07:34:04;;;;;;;17.07;8.98;;;;;;;32.37;45.06;100768.07;1748619;82;21067;-73
2022/06/30 07:36:31;;;;;;;15.95;8.75;;;;;;;32.59;45.33;100770.56;1748819;82;21066;-73
2022/06/30 07:38:58;;;;;;;20.55;8.83;;;;;;;33.13;45.14;100772.09;1746586;82;21010;-73
2022/06/30 07:41:25;;;;;;;25.08;9.93;;;;;;;33.35;44.44;100771.82;1750681;81;21102;-73
2022/06/30 07:43:52;;;;;;;16.80;8.85;;;;;;;32.52;45.20;100766.52;1747020;81;20991;-74
2022/06/30 07:46:19;;;;;;;15.65;7.90;;;;;;;32.49;45.17;100769.09;1749447;82;21047;-73
2022/06/30 07:48:48;;;;;;;16.77;9.30;;;;;;;33.05;44.65;100770.96;1750149;82;21562;-73
2022/06/30 07:51:18;;;;;;;17.50;8.58;;;;;;;33.05;43.53;100771.80;1748783;81;21014;-74
2022/06/30 07:53:46;;;;;;;15.93;9.18;;;;;;;32.82;43.70;100764.25;1751248;82;20983;-73
2022/06/30 07:56:13;;;;;;;18.42;8.83;;;;;;;32.80;43.83;100768.16;1747984;81;21503;-73
2022/06/30 07:58:40;;;;;;;17.23;8.63;;;;;;;34.32;42.15;100772.51;1748369;81;21539;-75
2022/06/30 08:01:07;;;;;;;18.15;8.13;;;;;;;34.47;41.94;100779.69;1739139;82;21483;-74
2022/06/30 08:03:35;;;;;;;10.45;7.80;;;;;;;36.28;39.14;100785.85;1725799;81;21390;-73
2022/06/30 08:06:02;;;;;;;17.62;8.00;;;;;;;35.02;41.00;100778.96;1735061;82;20996;-73
2022/06/30 08:08:30;;;;;;;14.23;7.25;;;;;;;35.53;41.61;100774.78;1721047;82;21083;-74
2022/06/30 08:10:57;;;;;;;13.83;8.33;;;;;;;35.74;41.45;100766.78;1719561;82;21054;-73
2022/06/30 08:13:24;;;;;;;17.27;9.15;;;;;;;35.13;40.70;100762.67;1725595;82;21056;-73
2022/06/30 08:15:52;;;;;;;24.32;18.35;;;;;;;35.71;41.00;100761.37;1723433;82;21127;-73
2022/06/30 08:18:19;;;;;;;26.17;15.32;;;;;;;35.30;41.07;100757.05;1750984;82;21032;-74
2022/06/30 08:20:47;;;;;;;16.80;10.78;;;;;;;35.29;40.92;100756.73;1746045;82;21531;-73
2022/06/30 08:23:15;;;;;;;15.10;9.88;;;;;;;35.43;40.57;100755.23;1721727;82;21112;-73
2022/06/30 08:25:42;;;;;;;17.60;10.15;;;;;;;35.84;40.10;100753.65;1737614;82;21495;-74
2022/06/30 08:28:09;;;;;;;17.98;11.03;;;;;;;36.10;40.29;100748.40;1716945;82;21067;-73
2022/06/30 08:30:36;;;;;;;16.12;8.38;;;;;;;36.74;39.32;100741.84;1720810;82;21102;-74
2022/06/30 08:33:04;;;;;;;18.85;8.30;;;;;;;38.17;37.41;100739.70;1714163;82;21513;-74
2022/06/30 08:35:32;;;;;;;16.20;8.90;;;;;;;37.38;37.57;100732.95;1746003;81;21103;-74
2022/06/30 08:37:58;;;;;;;18.10;7.80;;;;;;;36.94;39.13;100734.75;1739994;81;21167;-75
2022/06/30 08:43:14;;;;;;;13.32;7.65;;;;;;;37.13;38.20;100733.27;1735048;82;21106;-74
2022/06/30 08:45:43;;;;;;;17.23;8.25;;;;;;;37.33;38.81;100732.84;1726250;82;21063;-74
2022/06/30 08:48:10;;;;;;;10.40;8.08;;;;;;;37.52;38.89;100743.67;1733672;82;21059;-73
2022/06/30 08:50:39;;;;;;;13.08;8.45;;;;;;;37.93;37.59;100743.05;1728996;82;21146;-73
2022/06/30 08:53:10;;;;;;;15.32;8.23;;;;;;;38.19;37.01;100738.93;1727990;82;21012;-73
2022/06/30 08:55:38;;;;;;;15.72;7.80;;;;;;;37.41;38.80;100736.48;1729765;83;21024;-75
2022/06/30 08:58:08;;;;;;;20.35;13.78;;;;;;;37.38;37.73;100734.30;1726752;82;21002;-74
2022/06/30 09:00:37;;;;;;;26.20;18.48;;;;;;;37.17;38.13;100745.16;1726830;82;21005;-74
2022/06/30 09:03:05;;;;;;;14.55;9.23;;;;;;;36.69;39.45;100740.41;1733540;82;21036;-74
2022/06/30 09:05:32;;;;;;;12.35;8.25;;;;;;;36.73;38.65;100740.77;1736331;81;21017;-74
2022/06/30 09:08:00;;;;;;;17.37;8.00;;;;;;;37.36;39.44;100734.53;1729175;82;21513;-74
2022/06/30 09:10:29;;;;;;;16.30;7.92;;;;;;;37.49;39.20;100743.64;1749650;82;21527;-74
2022/06/30 09:13:04;;;;;;;13.28;7.22;;;;;;;37.28;39.08;100740.28;1752305;82;20992;-75
2022/06/30 09:15:36;;;;;;;12.30;7.42;;;;;;;37.20;37.86;100746.84;1747107;82;21028;-74
2022/06/30 09:18:04;;;;;;;15.70;7.85;;;;;;;37.33;38.34;100746.27;1747010;82;21016;-74
2022/06/30 09:20:35;;;;;;;16.50;7.87;;;;;;;37.63;38.71;100748.73;1736273;81;21087;-74
2022/06/30 09:23:25;;;;;;;15.88;7.60;;;;;;;37.17;39.46;100739.78;1728951;82;21118;-74
2022/06/30 09:25:55;;;;;;;14.90;7.90;;;;;;;37.30;38.41;100740.86;1727144;82;21525;-73
2022/06/30 09:28:42;;;;;;;15.85;7.80;;;;;;;37.26;38.81;100734.34;1733410;81;21562;-73
2022/06/30 09:31:13;;;;;;;19.07;7.85;;;;;;;36.92;39.05;100738.20;1730582;82;21552;-74
2022/06/30 09:33:47;;;;;;;12.80;7.25;;;;;;;37.08;38.75;100745.50;1723563;82;21084;-74
2022/06/30 09:36:21;;;;;;;15.35;7.90;;;;;;;37.21;39.04;100743.65;1735121;81;21035;-74
2022/06/30 09:39:08;;;;;;;16.77;7.45;;;;;;;37.62;38.72;100749.27;1735608;82;21031;-75
2022/06/30 09:41:39;;;;;;;14.00;7.42;;;;;;;37.10;38.02;100750.09;1723225;82;21075;-74
2022/06/30 09:44:10;;;;;;;18.73;7.70;;;;;;;37.63;39.04;100744.16;1732717;82;21552;-74
2022/06/30 09:46:37;;;;;;;11.25;7.35;;;;;;;37.63;39.61;100742.01;1722501;83;21068;-74
2022/06/30 09:49:04;;;;;;;16.17;10.45;;;;;;;37.93;38.32;100737.69;1744072;81;21043;-74
2022/06/30 09:51:32;;;;;;;15.05;8.58;;;;;;;38.38;38.05;100740.00;1729246;82;21037;-74
2022/06/30 09:54:09;;;;;;;12.90;7.22;;;;;;;38.35;38.09;100737.82;1698820;82;21095;-74
2022/06/30 09:56:38;;;;;;;15.43;8.00;;;;;;;38.33;38.67;100739.41;1735287;82;21072;-74
2022/06/30 09:59:07;;;;;;;14.23;7.05;;;;;;;37.63;38.96;100731.27;1732447;81;21567;-75
2022/06/30 10:01:54;;;;;;;12.35;7.53;;;;;;;37.61;38.36;100735.53;1728596;81;21042;-74
2022/06/30 10:04:21;;;;;;;13.78;7.53;;;;;;;38.72;38.65;100732.69;1743146;82;21566;-75
2022/06/30 10:06:48;;;;;;;16.65;7.40;;;;;;;38.24;38.14;100739.02;1732998;82;21027;-74
2022/06/30 10:09:18;;;;;;;11.33;6.85;;;;;;;38.05;38.18;100734.41;1721502;81;21605;-75
2022/06/30 10:11:47;;;;;;;10.72;6.80;;;;;;;38.15;38.72;100734.30;1730944;82;21035;-75
2022/06/30 10:14:16;;;;;;;13.53;6.92;;;;;;;38.36;39.72;100738.89;1746612;82;21024;-75
2022/06/30 10:16:44;;;;;;;14.15;6.97;;;;;;;38.30;38.56;100738.54;1732005;81;21036;-74
2022/06/30 10:19:13;;;;;;;14.53;7.00;;;;;;;38.82;37.55;100737.39;1707824;83;21169;-75
2022/06/30 10:21:41;;;;;;;16.77;6.75;;;;;;;38.92;37.62;100732.67;1729216;81;21028;-74
2022/06/30 10:24:09;;;;;;;13.85;6.70;;;;;;;38.31;38.67;100730.77;1735671;82;21072;-74
2022/06/30 10:29:23;;;;;;;12.53;6.50;;;;;;;38.52;37.20;100736.46;1726480;82;21075;-74
2022/06/30 10:32:07;;;;;;;18.15;6.60;;;;;;;38.01;38.88;100726.52;1735693;82;21572;-75
2022/06/30 10:34:39;;;;;;;12.30;5.95;;;;;;;38.08;39.31;100724.53;1742529;82;21564;-74
2022/06/30 10:37:26;;;;;;;15.20;6.28;;;;;;;38.36;39.35;100720.07;1728208;82;21091;-74
2022/06/30 10:40:04;;;;;;;13.28;6.53;;;;;;;37.81;38.95;100712.23;1742040;82;21063;-76
2022/06/30 10:42:50;;;;;;;11.60;6.15;;;;;;;38.91;38.77;100713.53;1731467;82;21083;-75
2022/06/30 10:45:34;;;;;;;10.50;6.00;;;;;;;38.37;38.12;100726.28;1737559;81;21111;-74
2022/06/30 10:48:09;;;;;;;14.60;6.58;;;;;;;39.65;38.66;100722.43;1727336;82;21088;-75
2022/06/30 10:50:42;;;;;;;9.95;6.20;;;;;;;38.55;38.17;100725.22;1734404;82;21064;-75
2022/06/30 10:53:16;;;;;;;10.45;6.47;;;;;;;37.06;39.52;100718.09;1733530;82;21047;-75
2022/06/30 10:55:55;;;;;;;12.98;6.55;;;;;;;38.66;39.11;100716.20;1708528;82;21083;-74
2022/06/30 10:58:23;;;;;;;14.50;6.35;;;;;;;38.66;38.02;100712.17;1733478;82;21000;-75
2022/06/30 11:01:01;;;;;;;14.50;6.80;;;;;;;38.75;38.24;100716.57;1717301;82;21079;-74
2022/06/30 11:03:37;;;;;;;14.53;6.45;;;;;;;38.12;39.83;100726.70;1731973;82;21599;-75
2022/06/30 11:06:09;;;;;;;13.72;6.53;;;;;;;37.37;40.09;100719.22;1730728;81;21531;-77
2022/06/30 11:08:57;;;;;;;14.13;6.17;;;;;;;36.68;40.71;100725.35;1703913;83;21063;-74
2022/06/30 11:11:29;;;;;;;12.58;6.33;;;;;;;38.08;39.91;100722.38;1725909;82;21520;-75
2022/06/30 11:14:08;;;;;;;13.05;6.20;;;;;;;38.05;39.72;100718.28;1727559;82;21567;-75
2022/06/30 11:16:39;;;;;;;13.45;6.53;;;;;;;38.01;39.72;100711.73;1731168;81;21090;-75
2022/06/30 11:19:16;;;;;;;13.30;6.58;;;;;;;38.28;40.56;100716.46;1744800;82;21079;-74
2022/06/30 11:21:44;;;;;;;10.00;6.12;;;;;;;39.22;39.61;100717.42;1732728;82;20997;-76
2022/06/30 11:24:15;;;;;;;10.75;5.80;;;;;;;38.75;39.01;100713.38;1744484;82;21127;-75
2022/06/30 11:29:30;;;;;;;8.65;5.83;;;;;;;38.61;38.92;100715.61;1737178;81;21031;-74
2022/06/30 11:32:01;;;;;;;11.10;5.72;;;;;;;38.76;39.48;100712.30;1747181;82;21102;-74
2022/06/30 11:34:31;;;;;;;12.78;6.00;;;;;;;39.36;37.04;100709.22;1747234;82;21000;-75
2022/06/30 11:36:58;;;;;;;13.75;6.12;;;;;;;37.54;40.98;100706.66;1746699;81;21031;-75
2022/06/30 11:39:26;;;;;;;11.18;5.78;;;;;;;38.26;40.00;100707.83;1736499;81;20997;-74